sensor_id;sensor_type;location;lat;lon;timestamp;pressure;altitude;pressure_sealevel;temperature;humidity
57192;BME280;43052;52.588;13.396;2022-07-10T00:00:50;101569.84;;;13.74;61.41
57192;BME280;43052;52.588;13.396;2022-07-10T00:03:15;101575.06;;;13.81;61.24
57192;BME280;43052;52.588;13.396;2022-07-10T00:05:40;101565.44;;;13.79;61.21
57192;BME280;43052;52.588;13.396;2022-07-10T00:08:05;101571.50;;;13.92;61.07
57192;BME280;43052;52.588;13.396;2022-07-10T00:10:31;101576.69;;;14.02;61.13
57192;BME280;43052;52.588;13.396;2022-07-10T00:12:58;101578.38;;;14.10;60.38
57192;BME280;43052;52.588;13.396;2022-07-10T00:15:23;101573.09;;;14.15;60.28
57192;BME280;43052;52.588;13.396;2022-07-10T00:17:49;101562.56;;;14.18;60.50
57192;BME280;43052;52.588;13.396;2022-07-10T00:20:15;101564.28;;;14.21;60.15
57192;BME280;43052;52.588;13.396;2022-07-10T00:22:41;101559.00;;;14.22;60.09
57192;BME280;43052;52.588;13.396;2022-07-10T00:25:10;101565.97;;;14.31;59.93
57192;BME280;43052;52.588;13.396;2022-07-10T00:27:35;101558.06;;;14.30;59.71
57192;BME280;43052;52.588;13.396;2022-07-10T00:30:01;101557.19;;;14.32;59.48
57192;BME280;43052;52.588;13.396;2022-07-10T00:32:26;101546.69;;;14.26;59.39
57192;BME280;43052;52.588;13.396;2022-07-10T00:34:52;101551.88;;;14.38;59.45
57192;BME280;43052;52.588;13.396;2022-07-10T00:37:17;101552.72;;;14.40;59.60
57192;BME280;43052;52.588;13.396;2022-07-10T00:39:43;101554.50;;;14.38;59.47
57192;BME280;43052;52.588;13.396;2022-07-10T00:42:13;101553.56;;;14.42;59.42
57192;BME280;43052;52.588;13.396;2022-07-10T00:44:38;101551.81;;;14.45;59.47
57192;BME280;43052;52.588;13.396;2022-07-10T00:47:05;101542.16;;;14.44;59.49
57192;BME280;43052;52.588;13.396;2022-07-10T00:49:31;101544.84;;;14.40;59.46
57192;BME280;43052;52.588;13.396;2022-07-10T00:51:59;101530.91;;;14.29;59.63
57192;BME280;43052;52.588;13.396;2022-07-10T00:54:26;101542.22;;;14.40;59.69
57192;BME280;43052;52.588;13.396;2022-07-10T00:56:51;101520.34;;;14.32;59.28
57192;BME280;43052;52.588;13.396;2022-07-10T00:59:17;101537.75;;;14.46;59.23
57192;BME280;43052;52.588;13.396;2022-07-10T01:01:44;101529.91;;;14.41;59.32
57192;BME280;43052;52.588;13.396;2022-07-10T01:04:09;101532.56;;;14.39;59.30
57192;BME280;43052;52.588;13.396;2022-07-10T01:06:34;101531.66;;;14.42;59.52
57192;BME280;43052;52.588;13.396;2022-07-10T01:09:00;101515.06;;;14.34;59.50
57192;BME280;43052;52.588;13.396;2022-07-10T01:11:25;101531.63;;;14.45;59.33
57192;BME280;43052;52.588;13.396;2022-07-10T01:13:50;101523.72;;;14.47;59.39
57192;BME280;43052;52.588;13.396;2022-07-10T01:16:16;101514.09;;;14.44;59.19
57192;BME280;43052;52.588;13.396;2022-07-10T01:18:42;101514.00;;;14.52;59.03
57192;BME280;43052;52.588;13.396;2022-07-10T01:23:50;101530.69;;;14.51;59.23
57192;BME280;43052;52.588;13.396;2022-07-10T01:26:16;101528.06;;;14.49;59.19
57192;BME280;43052;52.588;13.396;2022-07-10T01:28:42;101533.31;;;14.52;58.87
57192;BME280;43052;52.588;13.396;2022-07-10T01:31:07;101508.03;;;14.37;59.05
57192;BME280;43052;52.588;13.396;2022-07-10T01:33:33;101527.19;;;14.50;59.01
57192;BME280;43052;52.588;13.396;2022-07-10T01:35:58;101528.91;;;14.54;59.41
57192;BME280;43052;52.588;13.396;2022-07-10T01:38:23;101529.78;;;14.55;59.12
57192;BME280;43052;52.588;13.396;2022-07-10T01:40:49;101526.28;;;14.54;58.91
57192;BME280;43052;52.588;13.396;2022-07-10T01:43:14;101514.97;;;14.45;59.17
57192;BME280;43052;52.588;13.396;2022-07-10T01:45:39;101521.91;;;14.52;59.22
57192;BME280;43052;52.588;13.396;2022-07-10T01:48:05;101516.69;;;14.49;59.13
57192;BME280;43052;52.588;13.396;2022-07-10T01:50:30;101521.03;;;14.53;59.03
57192;BME280;43052;52.588;13.396;2022-07-10T01:52:56;101520.19;;;14.48;59.22
57192;BME280;43052;52.588;13.396;2022-07-10T01:55:21;101522.81;;;14.49;59.43
57192;BME280;43052;52.588;13.396;2022-07-10T01:57:46;101514.94;;;14.46;59.35
57192;BME280;43052;52.588;13.396;2022-07-10T02:00:12;101516.69;;;14.49;59.42
57192;BME280;43052;52.588;13.396;2022-07-10T02:02:37;101518.44;;;14.48;59.38
57192;BME280;43052;52.588;13.396;2022-07-10T02:05:03;101526.31;;;14.51;59.60
57192;BME280;43052;52.588;13.396;2022-07-10T02:07:28;101518.47;;;14.47;59.48
57192;BME280;43052;52.588;13.396;2022-07-10T02:09:53;101528.97;;;14.48;59.37
57192;BME280;43052;52.588;13.396;2022-07-10T02:12:18;101519.31;;;14.47;59.79
57192;BME280;43052;52.588;13.396;2022-07-10T02:14:44;101517.56;;;14.46;59.45
57192;BME280;43052;52.588;13.396;2022-07-10T02:17:09;101515.84;;;14.45;59.21
57192;BME280;43052;52.588;13.396;2022-07-10T02:19:34;101520.22;;;14.45;59.59
57192;BME280;43052;52.588;13.396;2022-07-10T02:22:00;101510.66;;;14.34;59.62
57192;BME280;43052;52.588;13.396;2022-07-10T02:24:26;101508.97;;;14.27;59.50
57192;BME280;43052;52.588;13.396;2022-07-10T02:26:51;101495.78;;;14.32;59.55
57192;BME280;43052;52.588;13.396;2022-07-10T02:29:16;101489.72;;;14.23;59.70
57192;BME280;43052;52.588;13.396;2022-07-10T02:31:43;101517.66;;;14.37;59.60
57192;BME280;43052;52.588;13.396;2022-07-10T02:34:09;101511.50;;;14.38;59.45
57192;BME280;43052;52.588;13.396;2022-07-10T02:36:35;101497.59;;;14.26;59.43
57192;BME280;43052;52.588;13.396;2022-07-10T02:39:01;101507.19;;;14.31;59.55
57192;BME280;43052;52.588;13.396;2022-07-10T02:41:27;101495.00;;;14.23;59.57
57192;BME280;43052;52.588;13.396;2022-07-10T02:43:52;101498.47;;;14.24;59.58
57192;BME280;43052;52.588;13.396;2022-07-10T02:46:17;101499.41;;;14.20;59.93
57192;BME280;43052;52.588;13.396;2022-07-10T02:48:43;101504.69;;;14.18;60.47
57192;BME280;43052;52.588;13.396;2022-07-10T02:51:08;101502.06;;;14.15;60.30
57192;BME280;43052;52.588;13.396;2022-07-10T02:53:33;101496.00;;;14.10;60.65
57192;BME280;43052;52.588;13.396;2022-07-10T02:55:58;101502.13;;;14.07;60.76
57192;BME280;43052;52.588;13.396;2022-07-10T02:58:24;101496.97;;;13.93;60.88
57192;BME280;43052;52.588;13.396;2022-07-10T03:00:49;101501.31;;;14.02;61.35
57192;BME280;43052;52.588;13.396;2022-07-10T03:03:14;101500.41;;;14.02;61.34
57192;BME280;43052;52.588;13.396;2022-07-10T03:05:42;101502.16;;;14.03;61.02
57192;BME280;43052;52.588;13.396;2022-07-10T03:08:07;101489.09;;;13.95;61.04
57192;BME280;43052;52.588;13.396;2022-07-10T03:10:32;101500.44;;;14.00;61.45
57192;BME280;43052;52.588;13.396;2022-07-10T03:12:57;101486.44;;;13.97;61.44
57192;BME280;43052;52.588;13.396;2022-07-10T03:15:23;101501.34;;;13.98;61.69
57192;BME280;43052;52.588;13.396;2022-07-10T03:17:49;101500.50;;;13.91;61.53
57192;BME280;43052;52.588;13.396;2022-07-10T03:20:14;101496.19;;;13.84;61.73
57192;BME280;43052;52.588;13.396;2022-07-10T03:22:39;101481.28;;;13.86;61.63
57192;BME280;43052;52.588;13.396;2022-07-10T03:25:05;101490.03;;;13.88;61.54
57192;BME280;43052;52.588;13.396;2022-07-10T03:27:30;101497.88;;;13.94;61.71
57192;BME280;43052;52.588;13.396;2022-07-10T03:29:55;101497.81;;;14.00;61.85
57192;BME280;43052;52.588;13.396;2022-07-10T03:32:21;101475.09;;;13.90;61.82
57192;BME280;43052;52.588;13.396;2022-07-10T03:34:46;101485.53;;;13.99;61.97
57192;BME280;43052;52.588;13.396;2022-07-10T03:37:12;101483.75;;;14.03;61.93
57192;BME280;43052;52.588;13.396;2022-07-10T03:39:37;101486.41;;;14.04;61.91
57192;BME280;43052;52.588;13.396;2022-07-10T03:42:02;101490.75;;;14.10;61.80
57192;BME280;43052;52.588;13.396;2022-07-10T03:44:28;101488.06;;;14.15;61.58
57192;BME280;43052;52.588;13.396;2022-07-10T03:46:53;101490.66;;;14.18;61.58
57192;BME280;43052;52.588;13.396;2022-07-10T03:49:18;101472.22;;;14.21;61.93
57192;BME280;43052;52.588;13.396;2022-07-10T03:51:43;101479.22;;;14.20;61.50
57192;BME280;43052;52.588;13.396;2022-07-10T03:54:09;101468.78;;;14.14;61.83
57192;BME280;43052;52.588;13.396;2022-07-10T03:56:34;101472.22;;;14.21;61.36
57192;BME280;43052;52.588;13.396;2022-07-10T03:59:18;101473.91;;;14.25;61.58
57192;BME280;43052;52.588;13.396;2022-07-10T04:01:43;101484.34;;;14.34;61.63
57192;BME280;43052;52.588;13.396;2022-07-10T04:04:08;101480.84;;;14.35;61.29
57192;BME280;43052;52.588;13.396;2022-07-10T04:06:34;101488.72;;;14.38;61.30
57192;BME280;43052;52.588;13.396;2022-07-10T04:08:59;101483.41;;;14.41;61.23
57192;BME280;43052;52.588;13.396;2022-07-10T04:11:24;101494.78;;;14.47;61.18
57192;BME280;43052;52.588;13.396;2022-07-10T04:13:49;101487.69;;;14.53;61.30
57192;BME280;43052;52.588;13.396;2022-07-10T04:16:15;101476.28;;;14.54;61.17
57192;BME280;43052;52.588;13.396;2022-07-10T04:18:40;101473.56;;;14.59;61.03
57192;BME280;43052;52.588;13.396;2022-07-10T04:21:06;101484.03;;;14.70;60.85
57192;BME280;43052;52.588;13.396;2022-07-10T04:23:34;101482.28;;;14.69;61.09
57192;BME280;43052;52.588;13.396;2022-07-10T04:26:00;101469.16;;;14.64;60.79
57192;BME280;43052;52.588;13.396;2022-07-10T04:28:25;101479.69;;;14.67;60.85
57192;BME280;43052;52.588;13.396;2022-07-10T04:30:51;101479.66;;;14.69;60.49
57192;BME280;43052;52.588;13.396;2022-07-10T04:33:16;101484.00;;;14.71;61.20
57192;BME280;43052;52.588;13.396;2022-07-10T04:35:41;101478.72;;;14.75;61.10
57192;BME280;43052;52.588;13.396;2022-07-10T04:38:06;101479.50;;;14.83;60.80
57192;BME280;43052;52.588;13.396;2022-07-10T04:40:32;101483.72;;;14.96;60.54
57192;BME280;43052;52.588;13.396;2022-07-10T04:42:57;101470.34;;;15.12;60.32
57192;BME280;43052;52.588;13.396;2022-07-10T04:45:22;101481.69;;;15.20;60.26
57192;BME280;43052;52.588;13.396;2022-07-10T04:47:48;101475.44;;;15.26;60.01
57192;BME280;43052;52.588;13.396;2022-07-10T04:50:13;101476.16;;;15.37;59.70
57192;BME280;43052;52.588;13.396;2022-07-10T04:52:38;101468.09;;;15.49;59.58
57192;BME280;43052;52.588;13.396;2022-07-10T04:55:04;101469.63;;;15.64;59.11
57192;BME280;43052;52.588;13.396;2022-07-10T04:57:30;101449.34;;;15.68;58.60
57192;BME280;43052;52.588;13.396;2022-07-10T04:59:55;101466.66;;;15.83;58.41
57192;BME280;43052;52.588;13.396;2022-07-10T05:02:21;101471.13;;;15.81;58.29
57192;BME280;43052;52.588;13.396;2022-07-10T05:04:47;101476.53;;;15.72;58.32
57192;BME280;43052;52.588;13.396;2022-07-10T05:07:12;101477.63;;;15.57;58.54
57192;BME280;43052;52.588;13.396;2022-07-10T05:09:39;101475.88;;;15.59;58.66
57192;BME280;43052;52.588;13.396;2022-07-10T05:12:05;101462.81;;;15.49;58.97
57192;BME280;43052;52.588;13.396;2022-07-10T05:14:30;101468.06;;;15.51;58.76
57192;BME280;43052;52.588;13.396;2022-07-10T05:16:55;101476.81;;;15.51;59.19
57192;BME280;43052;52.588;13.396;2022-07-10T05:19:20;101478.44;;;15.63;59.00
57192;BME280;43052;52.588;13.396;2022-07-10T05:21:46;101463.28;;;15.76;58.64
57192;BME280;43052;52.588;13.396;2022-07-10T05:24:11;101463.03;;;15.93;57.99
57192;BME280;43052;52.588;13.396;2022-07-10T05:26:36;101467.94;;;16.13;57.99
57192;BME280;43052;52.588;13.396;2022-07-10T05:29:01;101463.16;;;16.36;57.54
57192;BME280;43052;52.588;13.396;2022-07-10T05:31:27;101460.31;;;16.48;57.15
57192;BME280;43052;52.588;13.396;2022-07-10T05:33:52;101473.09;;;16.70;56.83
57192;BME280;43052;52.588;13.396;2022-07-10T05:36:17;101463.16;;;16.81;56.47
57192;BME280;43052;52.588;13.396;2022-07-10T05:38:42;101473.47;;;16.97;56.42
57192;BME280;43052;52.588;13.396;2022-07-10T05:41:08;101474.44;;;16.91;56.05
57192;BME280;43052;52.588;13.396;2022-07-10T05:43:34;101473.69;;;16.84;56.01
57192;BME280;43052;52.588;13.396;2022-07-10T05:45:59;101471.16;;;16.78;55.79
57192;BME280;43052;52.588;13.396;2022-07-10T05:48:24;101462.63;;;16.65;55.79
57192;BME280;43052;52.588;13.396;2022-07-10T05:50:50;101470.81;;;16.50;55.92
57192;BME280;43052;52.588;13.396;2022-07-10T05:53:15;101472.69;;;16.44;56.45
57192;BME280;43052;52.588;13.396;2022-07-10T05:55:40;101468.38;;;16.39;56.63
57192;BME280;43052;52.588;13.396;2022-07-10T05:58:05;101478.91;;;16.40;56.45
57192;BME280;43052;52.588;13.396;2022-07-10T06:00:31;101478.00;;;16.43;56.53
57192;BME280;43052;52.588;13.396;2022-07-10T06:02:56;101472.66;;;16.46;56.38
57192;BME280;43052;52.588;13.396;2022-07-10T06:05:21;101472.69;;;16.44;56.40
57192;BME280;43052;52.588;13.396;2022-07-10T06:07:47;101470.19;;;16.37;56.34
57192;BME280;43052;52.588;13.396;2022-07-10T06:10:12;101488.13;;;16.18;56.92
57192;BME280;43052;52.588;13.396;2022-07-10T06:12:38;101485.69;;;16.05;57.30
57192;BME280;43052;52.588;13.396;2022-07-10T06:15:04;101483.91;;;16.07;57.28
57192;BME280;43052;52.588;13.396;2022-07-10T06:17:29;101484.72;;;16.11;57.10
57192;BME280;43052;52.588;13.396;2022-07-10T06:19:54;101483.03;;;16.07;57.18
57192;BME280;43052;52.588;13.396;2022-07-10T06:22:20;101469.84;;;16.07;57.31
57192;BME280;43052;52.588;13.396;2022-07-10T06:25:01;101481.03;;;16.21;56.94
57192;BME280;43052;52.588;13.396;2022-07-10T06:27:28;101476.00;;;16.54;56.46
57192;BME280;43052;52.588;13.396;2022-07-10T06:29:53;101470.19;;;16.82;55.29
57192;BME280;43052;52.588;13.396;2022-07-10T06:32:19;101470.59;;;17.06;55.12
57192;BME280;43052;52.588;13.396;2022-07-10T06:34:44;101472.16;;;17.16;54.70
57192;BME280;43052;52.588;13.396;2022-07-10T06:37:09;101475.69;;;17.15;54.50
57192;BME280;43052;52.588;13.396;2022-07-10T06:39:35;101473.38;;;17.00;54.73
57192;BME280;43052;52.588;13.396;2022-07-10T06:42:02;101474.22;;;17.02;54.38
57192;BME280;43052;52.588;13.396;2022-07-10T06:44:27;101472.34;;;17.07;54.27
57192;BME280;43052;52.588;13.396;2022-07-10T06:46:52;101479.28;;;17.14;54.03
57192;BME280;43052;52.588;13.396;2022-07-10T06:49:36;101477.44;;;17.16;54.19
57192;BME280;43052;52.588;13.396;2022-07-10T06:52:02;101471.94;;;17.26;53.65
57192;BME280;43052;52.588;13.396;2022-07-10T06:54:27;101476.03;;;17.41;53.56
57192;BME280;43052;52.588;13.396;2022-07-10T06:56:52;101477.94;;;17.73;52.71
57192;BME280;43052;52.588;13.396;2022-07-10T06:59:18;101474.16;;;18.20;51.79
57192;BME280;43052;52.588;13.396;2022-07-10T07:01:43;101473.69;;;19.01;49.44
57192;BME280;43052;52.588;13.396;2022-07-10T07:04:08;101471.91;;;19.88;47.31
57192;BME280;43052;52.588;13.396;2022-07-10T07:06:34;101471.59;;;20.23;46.28
57192;BME280;43052;52.588;13.396;2022-07-10T07:08:59;101460.41;;;20.64;44.92
57192;BME280;43052;52.588;13.396;2022-07-10T07:11:24;101453.50;;;21.53;43.46
57192;BME280;43052;52.588;13.396;2022-07-10T07:13:50;101448.28;;;22.15;41.63
57192;BME280;43052;52.588;13.396;2022-07-10T07:16:15;101458.66;;;22.21;41.46
57192;BME280;43052;52.588;13.396;2022-07-10T07:18:43;101459.72;;;21.97;42.03
57192;BME280;43052;52.588;13.396;2022-07-10T07:21:14;101447.75;;;21.64;42.18
57192;BME280;43052;52.588;13.396;2022-07-10T07:23:58;101462.34;;;21.76;41.71
57192;BME280;43052;52.588;13.396;2022-07-10T07:26:23;101455.34;;;21.73;41.28
57192;BME280;43052;52.588;13.396;2022-07-10T07:28:49;101455.97;;;21.80;41.18
57192;BME280;43052;52.588;13.396;2022-07-10T07:31:14;101450.88;;;21.74;41.23
57192;BME280;43052;52.588;13.396;2022-07-10T07:33:43;101456.56;;;21.87;40.88
57192;BME280;43052;52.588;13.396;2022-07-10T07:36:08;101459.44;;;22.03;40.29
57192;BME280;43052;52.588;13.396;2022-07-10T07:38:33;101462.41;;;22.78;40.04
57192;BME280;43052;52.588;13.396;2022-07-10T07:40:59;101459.25;;;24.18;36.70
57192;BME280;43052;52.588;13.396;2022-07-10T07:43:24;101465.34;;;24.37;35.42
57192;BME280;43052;52.588;13.396;2022-07-10T07:45:49;101473.38;;;24.20;34.84
57192;BME280;43052;52.588;13.396;2022-07-10T07:48:15;101474.84;;;23.90;35.61
57192;BME280;43052;52.588;13.396;2022-07-10T07:50:47;101473.94;;;23.55;34.60
57192;BME280;43052;52.588;13.396;2022-07-10T07:53:12;101472.75;;;23.43;34.83
57192;BME280;43052;52.588;13.396;2022-07-10T07:55:38;101475.56;;;23.40;34.92
57192;BME280;43052;52.588;13.396;2022-07-10T07:58:05;101470.34;;;23.56;34.84
57192;BME280;43052;52.588;13.396;2022-07-10T08:00:30;101471.38;;;23.53;34.34
57192;BME280;43052;52.588;13.396;2022-07-10T08:02:56;101467.38;;;23.25;34.93
57192;BME280;43052;52.588;13.396;2022-07-10T08:05:23;101470.44;;;23.35;34.79
57192;BME280;43052;52.588;13.396;2022-07-10T08:07:58;101460.16;;;23.64;34.31
57192;BME280;43052;52.588;13.396;2022-07-10T08:10:26;101459.53;;;23.76;34.08
57192;BME280;43052;52.588;13.396;2022-07-10T08:12:52;101451.88;;;24.56;32.55
57192;BME280;43052;52.588;13.396;2022-07-10T08:15:19;101451.72;;;25.09;32.25
57192;BME280;43052;52.588;13.396;2022-07-10T08:17:48;101445.25;;;25.29;31.64
57192;BME280;43052;52.588;13.396;2022-07-10T08:20:14;101448.59;;;25.33;31.33
57192;BME280;43052;52.588;13.396;2022-07-10T08:22:41;101449.72;;;25.61;31.06
57192;BME280;43052;52.588;13.396;2022-07-10T08:25:07;101444.50;;;25.74;30.38
57192;BME280;43052;52.588;13.396;2022-07-10T08:27:33;101448.00;;;25.28;30.96
57192;BME280;43052;52.588;13.396;2022-07-10T08:29:58;101460.88;;;24.89;31.26
57192;BME280;43052;52.588;13.396;2022-07-10T08:32:23;101444.66;;;24.59;31.85
57192;BME280;43052;52.588;13.396;2022-07-10T08:34:48;101453.56;;;24.41;31.40
57192;BME280;43052;52.588;13.396;2022-07-10T08:37:15;101453.94;;;24.00;31.68
57192;BME280;43052;52.588;13.396;2022-07-10T08:39:40;101466.38;;;23.45;32.64
57192;BME280;43052;52.588;13.396;2022-07-10T08:42:06;101462.72;;;22.91;33.27
57192;BME280;43052;52.588;13.396;2022-07-10T08:44:33;101462.41;;;22.59;33.18
57192;BME280;43052;52.588;13.396;2022-07-10T08:46:59;101469.31;;;22.63;33.41
57192;BME280;43052;52.588;13.396;2022-07-10T08:49:29;101465.50;;;22.88;33.20
57192;BME280;43052;52.588;13.396;2022-07-10T08:52:34;101471.81;;;23.06;33.17
57192;BME280;43052;52.588;13.396;2022-07-10T08:55:03;101462.78;;;23.08;32.92
57192;BME280;43052;52.588;13.396;2022-07-10T08:57:29;101458.56;;;23.23;33.51
57192;BME280;43052;52.588;13.396;2022-07-10T08:59:56;101468.28;;;23.24;33.60
57192;BME280;43052;52.588;13.396;2022-07-10T09:02:22;101466.75;;;23.38;33.88
57192;BME280;43052;52.588;13.396;2022-07-10T09:04:47;101468.53;;;23.56;33.08
57192;BME280;43052;52.588;13.396;2022-07-10T09:07:13;101471.16;;;23.75;33.20
57192;BME280;43052;52.588;13.396;2022-07-10T09:09:52;101465.81;;;23.58;32.99
57192;BME280;43052;52.588;13.396;2022-07-10T09:12:18;101468.69;;;23.15;33.49
57192;BME280;43052;52.588;13.396;2022-07-10T09:14:43;101459.56;;;22.62;34.56
57192;BME280;43052;52.588;13.396;2022-07-10T09:17:09;101474.38;;;22.69;35.05
57192;BME280;43052;52.588;13.396;2022-07-10T09:19:34;101478.00;;;22.87;34.70
57192;BME280;43052;52.588;13.396;2022-07-10T09:22:06;101475.31;;;22.87;34.82
57192;BME280;43052;52.588;13.396;2022-07-10T09:24:36;101469.84;;;22.90;34.26
57192;BME280;43052;52.588;13.396;2022-07-10T09:27:02;101476.03;;;22.91;34.03
57192;BME280;43052;52.588;13.396;2022-07-10T09:29:31;101473.09;;;23.16;33.92
57192;BME280;43052;52.588;13.396;2022-07-10T09:32:01;101476.06;;;23.29;33.34
57192;BME280;43052;52.588;13.396;2022-07-10T09:34:46;101470.25;;;23.57;33.32
57192;BME280;43052;52.588;13.396;2022-07-10T09:37:28;101444.50;;;23.56;32.82
57192;BME280;43052;52.588;13.396;2022-07-10T09:39:58;101475.97;;;23.50;32.46
57192;BME280;43052;52.588;13.396;2022-07-10T09:44:53;101473.31;;;23.30;32.48
57192;BME280;43052;52.588;13.396;2022-07-10T09:47:41;101474.25;;;23.29;32.70
57192;BME280;43052;52.588;13.396;2022-07-10T09:50:32;101475.69;;;24.79;32.07
57192;BME280;43052;52.588;13.396;2022-07-10T09:53:00;101475.00;;;25.71;29.88
57192;BME280;43052;52.588;13.396;2022-07-10T09:55:28;101470.09;;;25.94;29.46
57192;BME280;43052;52.588;13.396;2022-07-10T09:57:59;101464.84;;;25.92;29.58
57192;BME280;43052;52.588;13.396;2022-07-10T10:00:30;101464.44;;;25.84;30.07
57192;BME280;43052;52.588;13.396;2022-07-10T10:02:59;101469.25;;;25.63;29.84
57192;BME280;43052;52.588;13.396;2022-07-10T10:05:32;101470.69;;;24.88;30.48
57192;BME280;43052;52.588;13.396;2022-07-10T10:08:02;101472.44;;;24.03;31.15
57192;BME280;43052;52.588;13.396;2022-07-10T10:10:30;101482.47;;;23.25;32.79
57192;BME280;43052;52.588;13.396;2022-07-10T10:12:58;101472.69;;;22.66;33.88
57192;BME280;43052;52.588;13.396;2022-07-10T10:15:25;101491.75;;;22.16;34.53
57192;BME280;43052;52.588;13.396;2022-07-10T10:17:51;101484.56;;;21.75;35.41
57192;BME280;43052;52.588;13.396;2022-07-10T10:20:17;101475.97;;;21.46;35.68
57192;BME280;43052;52.588;13.396;2022-07-10T10:23:04;101486.00;;;21.62;36.15
57192;BME280;43052;52.588;13.396;2022-07-10T10:25:32;101478.13;;;21.81;35.55
57192;BME280;43052;52.588;13.396;2022-07-10T10:27:59;101484.34;;;22.02;35.13
57192;BME280;43052;52.588;13.396;2022-07-10T10:30:25;101490.94;;;22.14;35.12
57192;BME280;43052;52.588;13.396;2022-07-10T10:32:51;101485.56;;;22.36;35.08
57192;BME280;43052;52.588;13.396;2022-07-10T10:35:42;101485.34;;;22.42;34.46
57192;BME280;43052;52.588;13.396;2022-07-10T10:38:08;101494.91;;;22.26;35.02
57192;BME280;43052;52.588;13.396;2022-07-10T10:40:34;101487.09;;;22.21;34.58
57192;BME280;43052;52.588;13.396;2022-07-10T10:43:18;101486.63;;;22.32;34.70
57192;BME280;43052;52.588;13.396;2022-07-10T10:45:44;101486.97;;;22.65;34.17
57192;BME280;43052;52.588;13.396;2022-07-10T10:48:14;101489.97;;;22.97;33.27
57192;BME280;43052;52.588;13.396;2022-07-10T10:51:09;101496.44;;;22.92;32.76
57192;BME280;43052;52.588;13.396;2022-07-10T10:53:35;101482.69;;;22.82;32.58
57192;BME280;43052;52.588;13.396;2022-07-10T10:58:26;101496.66;;;22.87;33.83
57192;BME280;43052;52.588;13.396;2022-07-10T11:01:02;101494.91;;;23.05;33.58
57192;BME280;43052;52.588;13.396;2022-07-10T11:03:28;101493.50;;;23.17;33.39
57192;BME280;43052;52.588;13.396;2022-07-10T11:05:53;101491.91;;;23.32;33.09
57192;BME280;43052;52.588;13.396;2022-07-10T11:08:54;101490.53;;;23.42;32.61
57192;BME280;43052;52.588;13.396;2022-07-10T11:13:58;101505.69;;;23.78;32.88
57192;BME280;43052;52.588;13.396;2022-07-10T11:16:23;101482.38;;;24.19;32.04
57192;BME280;43052;52.588;13.396;2022-07-10T11:18:52;101486.44;;;24.44;31.97
57192;BME280;43052;52.588;13.396;2022-07-10T11:21:22;101497.31;;;24.56;31.70
57192;BME280;43052;52.588;13.396;2022-07-10T11:26:35;101500.09;;;24.37;31.91
57192;BME280;43052;52.588;13.396;2022-07-10T11:29:04;101494.19;;;24.48;31.92
57192;BME280;43052;52.588;13.396;2022-07-10T11:31:30;101503.91;;;24.84;31.56
57192;BME280;43052;52.588;13.396;2022-07-10T11:33:59;101501.41;;;25.13;31.25
57192;BME280;43052;52.588;13.396;2022-07-10T11:36:26;101498.41;;;25.35;30.71
57192;BME280;43052;52.588;13.396;2022-07-10T11:38:58;101494.19;;;25.63;30.00
57192;BME280;43052;52.588;13.396;2022-07-10T11:41:24;101501.28;;;25.48;29.47
57192;BME280;43052;52.588;13.396;2022-07-10T11:43:52;101493.84;;;25.22;30.06
57192;BME280;43052;52.588;13.396;2022-07-10T11:46:19;101503.84;;;25.18;30.06
57192;BME280;43052;52.588;13.396;2022-07-10T11:48:46;101492.75;;;24.76;30.10
57192;BME280;43052;52.588;13.396;2022-07-10T11:56:19;101513.03;;;23.56;32.73
57192;BME280;43052;52.588;13.396;2022-07-10T11:58:57;101494.72;;;23.85;32.27
57192;BME280;43052;52.588;13.396;2022-07-10T12:01:22;101501.44;;;24.29;31.80
57192;BME280;43052;52.588;13.396;2022-07-10T12:03:58;101496.19;;;24.61;31.48
57192;BME280;43052;52.588;13.396;2022-07-10T12:06:25;101491.47;;;24.99;31.65
57192;BME280;43052;52.588;13.396;2022-07-10T12:08:51;101487.38;;;25.26;30.92
57192;BME280;43052;52.588;13.396;2022-07-10T12:11:17;101492.66;;;25.59;30.35
57192;BME280;43052;52.588;13.396;2022-07-10T12:13:44;101485.47;;;25.60;30.09
57192;BME280;43052;52.588;13.396;2022-07-10T12:16:10;101497.06;;;25.44;29.61
57192;BME280;43052;52.588;13.396;2022-07-10T12:18:36;101491.88;;;25.25;30.11
57192;BME280;43052;52.588;13.396;2022-07-10T12:21:02;101490.09;;;25.42;30.13
57192;BME280;43052;52.588;13.396;2022-07-10T12:23:28;101491.97;;;25.56;29.40
57192;BME280;43052;52.588;13.396;2022-07-10T12:25:54;101489.88;;;25.45;29.56
57192;BME280;43052;52.588;13.396;2022-07-10T12:28:21;101495.06;;;25.48;30.01
57192;BME280;43052;52.588;13.396;2022-07-10T12:30:48;101498.50;;;25.66;29.82
57192;BME280;43052;52.588;13.396;2022-07-10T12:33:22;101502.84;;;25.69;29.24
57192;BME280;43052;52.588;13.396;2022-07-10T12:35:54;101501.28;;;25.48;29.86
57192;BME280;43052;52.588;13.396;2022-07-10T12:38:28;101498.06;;;25.26;30.09
57192;BME280;43052;52.588;13.396;2022-07-10T12:41:13;101498.91;;;24.94;30.94
57192;BME280;43052;52.588;13.396;2022-07-10T12:43:39;101498.59;;;24.49;30.41
57192;BME280;43052;52.588;13.396;2022-07-10T12:46:19;101501.53;;;24.27;30.95
57192;BME280;43052;52.588;13.396;2022-07-10T12:49:05;101498.91;;;24.25;30.78
57192;BME280;43052;52.588;13.396;2022-07-10T12:51:33;101494.84;;;24.36;31.12
57192;BME280;43052;52.588;13.396;2022-07-10T12:53:59;101489.56;;;24.52;30.90
57192;BME280;43052;52.588;13.396;2022-07-10T12:56:35;101495.06;;;24.49;30.75
57192;BME280;43052;52.588;13.396;2022-07-10T12:59:11;101502.06;;;24.16;31.13